sensor_id;sensor_type;location;lat;lon;timestamp;pressure;altitude;pressure_sealevel;temperature;humidity
16355;BME280;8287;51.644;8.494;2022-10-16T00:01:07;99945.38;;;18.07;75.75
16355;BME280;8287;51.644;8.494;2022-10-16T00:03:34;99941.84;;;18.03;75.96
16355;BME280;8287;51.644;8.494;2022-10-16T00:06:01;99928.03;;;18.01;75.99
16355;BME280;8287;51.644;8.494;2022-10-16T00:08:28;99924.63;;;18.04;75.89
16355;BME280;8287;51.644;8.494;2022-10-16T00:11:00;99939.22;;;18.06;75.82
16355;BME280;8287;51.644;8.494;2022-10-16T00:13:28;99935.34;;;18.04;75.71
16355;BME280;8287;51.644;8.494;2022-10-16T00:15:55;99942.69;;;18.07;75.52
16355;BME280;8287;51.644;8.494;2022-10-16T00:18:22;99926.09;;;17.98;76.22
16355;BME280;8287;51.644;8.494;2022-10-16T00:20:49;99930.31;;;17.99;75.90
16355;BME280;8287;51.644;8.494;2022-10-16T00:23:15;99938.34;;;17.99;76.08
16355;BME280;8287;51.644;8.494;2022-10-16T00:25:42;99935.56;;;17.92;76.45
16355;BME280;8287;51.644;8.494;2022-10-16T00:28:08;99927.63;;;17.99;76.43
16355;BME280;8287;51.644;8.494;2022-10-16T00:30:38;99917.63;;;17.96;76.42
16355;BME280;8287;51.644;8.494;2022-10-16T00:33:05;99920.63;;;17.91;76.78
16355;BME280;8287;51.644;8.494;2022-10-16T00:35:32;99929.03;;;17.89;76.68
16355;BME280;8287;51.644;8.494;2022-10-16T00:37:58;99931.75;;;17.93;76.27
16355;BME280;8287;51.644;8.494;2022-10-16T00:40:25;99926.28;;;17.86;76.85
16355;BME280;8287;51.644;8.494;2022-10-16T00:42:53;99925.16;;;17.87;76.60
16355;BME280;8287;51.644;8.494;2022-10-16T00:45:20;99933.25;;;17.90;76.38
16355;BME280;8287;51.644;8.494;2022-10-16T00:47:48;99939.69;;;17.86;76.67
16355;BME280;8287;51.644;8.494;2022-10-16T00:50:22;99933.53;;;17.82;76.83
16355;BME280;8287;51.644;8.494;2022-10-16T00:52:51;99924.63;;;17.78;76.92
16355;BME280;8287;51.644;8.494;2022-10-16T00:55:19;99922.69;;;17.75;76.85
16355;BME280;8287;51.644;8.494;2022-10-16T00:57:46;99930.34;;;17.76;76.95
16355;BME280;8287;51.644;8.494;2022-10-16T01:00:17;99938.38;;;17.73;76.69
16355;BME280;8287;51.644;8.494;2022-10-16T01:02:53;99935.69;;;17.73;77.11
16355;BME280;8287;51.644;8.494;2022-10-16T01:05:21;99932.44;;;17.60;77.24
16355;BME280;8287;51.644;8.494;2022-10-16T01:07:53;99936.75;;;17.68;77.36
16355;BME280;8287;51.644;8.494;2022-10-16T01:10:27;99945.97;;;17.71;76.54
16355;BME280;8287;51.644;8.494;2022-10-16T01:12:59;99939.06;;;17.70;76.87
16355;BME280;8287;51.644;8.494;2022-10-16T01:15:31;99939.41;;;17.68;76.88
16355;BME280;8287;51.644;8.494;2022-10-16T01:18:08;99942.47;;;17.67;77.15
16355;BME280;8287;51.644;8.494;2022-10-16T01:20:37;99935.56;;;17.66;76.88
16355;BME280;8287;51.644;8.494;2022-10-16T01:23:17;99940.94;;;17.66;77.09
16355;BME280;8287;51.644;8.494;2022-10-16T01:25:55;99949.66;;;17.63;77.22
16355;BME280;8287;51.644;8.494;2022-10-16T01:28:29;99938.19;;;17.62;77.27
16355;BME280;8287;51.644;8.494;2022-10-16T01:30:59;99937.06;;;17.63;76.96
16355;BME280;8287;51.644;8.494;2022-10-16T01:33:31;99938.59;;;17.64;76.83
16355;BME280;8287;51.644;8.494;2022-10-16T01:36:05;99945.34;;;17.55;77.25
16355;BME280;8287;51.644;8.494;2022-10-16T01:38:36;99953.81;;;17.57;77.29
16355;BME280;8287;51.644;8.494;2022-10-16T01:41:08;99955.03;;;17.63;76.87
16355;BME280;8287;51.644;8.494;2022-10-16T01:43:40;99953.13;;;17.63;75.94
16355;BME280;8287;51.644;8.494;2022-10-16T01:46:09;99950.75;;;17.58;77.20
16355;BME280;8287;51.644;8.494;2022-10-16T01:48:37;99954.63;;;17.61;76.77
16355;BME280;8287;51.644;8.494;2022-10-16T01:51:07;99948.50;;;17.60;76.48
16355;BME280;8287;51.644;8.494;2022-10-16T01:53:35;99956.91;;;17.59;76.47
16355;BME280;8287;51.644;8.494;2022-10-16T01:56:05;99962.97;;;17.56;76.50
16355;BME280;8287;51.644;8.494;2022-10-16T01:58:35;99961.00;;;17.53;76.68
16355;BME280;8287;51.644;8.494;2022-10-16T02:01:07;99972.91;;;17.55;76.82
16355;BME280;8287;51.644;8.494;2022-10-16T02:03:37;99968.75;;;17.58;76.43
16355;BME280;8287;51.644;8.494;2022-10-16T02:06:06;99980.59;;;17.57;77.12
16355;BME280;8287;51.644;8.494;2022-10-16T02:08:33;99973.72;;;17.59;76.70
16355;BME280;8287;51.644;8.494;2022-10-16T02:11:01;99969.56;;;17.62;76.54
16355;BME280;8287;51.644;8.494;2022-10-16T02:13:31;99971.06;;;17.59;76.35
16355;BME280;8287;51.644;8.494;2022-10-16T02:15:59;99973.38;;;17.61;76.38
16355;BME280;8287;51.644;8.494;2022-10-16T02:18:27;99963.81;;;17.60;76.68
16355;BME280;8287;51.644;8.494;2022-10-16T02:20:59;99970.34;;;17.62;76.51
16355;BME280;8287;51.644;8.494;2022-10-16T02:23:34;99963.44;;;17.61;76.49
16355;BME280;8287;51.644;8.494;2022-10-16T02:26:07;99972.25;;;17.62;76.91
16355;BME280;8287;51.644;8.494;2022-10-16T02:28:39;99967.28;;;17.64;76.70
16355;BME280;8287;51.644;8.494;2022-10-16T02:31:10;99969.97;;;17.64;76.30
16355;BME280;8287;51.644;8.494;2022-10-16T02:33:40;99970.69;;;17.61;76.54
16355;BME280;8287;51.644;8.494;2022-10-16T02:36:08;99982.25;;;17.65;76.29
16355;BME280;8287;51.644;8.494;2022-10-16T02:38:36;99975.34;;;17.64;76.19
16355;BME280;8287;51.644;8.494;2022-10-16T02:41:04;99979.59;;;17.65;75.73
16355;BME280;8287;51.644;8.494;2022-10-16T02:43:31;99969.94;;;17.60;76.01
16355;BME280;8287;51.644;8.494;2022-10-16T02:45:58;99970.28;;;17.59;76.08
16355;BME280;8287;51.644;8.494;2022-10-16T02:48:25;99974.50;;;17.60;76.04
16355;BME280;8287;51.644;8.494;2022-10-16T02:50:53;99979.06;;;17.56;76.20
16355;BME280;8287;51.644;8.494;2022-10-16T02:53:19;99982.56;;;17.60;76.07
16355;BME280;8287;51.644;8.494;2022-10-16T02:55:46;99980.16;;;17.55;76.21
16355;BME280;8287;51.644;8.494;2022-10-16T02:58:12;99984.41;;;17.56;75.90
16355;BME280;8287;51.644;8.494;2022-10-16T03:00:39;99985.47;;;17.51;76.18
16355;BME280;8287;51.644;8.494;2022-10-16T03:03:06;99981.28;;;17.54;76.07
16355;BME280;8287;51.644;8.494;2022-10-16T03:05:32;99975.53;;;17.52;76.28
16355;BME280;8287;51.644;8.494;2022-10-16T03:08:00;99986.25;;;17.52;76.32
16355;BME280;8287;51.644;8.494;2022-10-16T03:10:27;99985.09;;;17.53;75.80
16355;BME280;8287;51.644;8.494;2022-10-16T03:12:53;99972.50;;;17.53;76.02
16355;BME280;8287;51.644;8.494;2022-10-16T03:15:20;99974.16;;;17.39;76.87
16355;BME280;8287;51.644;8.494;2022-10-16T03:17:46;99969.69;;;17.46;76.29
16355;BME280;8287;51.644;8.494;2022-10-16T03:20:13;99980.28;;;17.39;76.30
16355;BME280;8287;51.644;8.494;2022-10-16T03:22:40;99993.75;;;17.43;76.61
16355;BME280;8287;51.644;8.494;2022-10-16T03:25:08;99978.03;;;17.41;76.50
16355;BME280;8287;51.644;8.494;2022-10-16T03:27:34;99980.00;;;17.44;76.25
16355;BME280;8287;51.644;8.494;2022-10-16T03:30:01;99985.31;;;17.41;76.54
16355;BME280;8287;51.644;8.494;2022-10-16T03:32:28;99993.75;;;17.43;76.48
16355;BME280;8287;51.644;8.494;2022-10-16T03:34:54;99992.22;;;17.42;76.54
16355;BME280;8287;51.644;8.494;2022-10-16T03:37:22;99983.84;;;17.47;76.65
16355;BME280;8287;51.644;8.494;2022-10-16T03:39:48;99990.28;;;17.42;76.54
16355;BME280;8287;51.644;8.494;2022-10-16T03:42:16;99991.47;;;17.45;76.60
16355;BME280;8287;51.644;8.494;2022-10-16T03:44:43;99980.00;;;17.44;76.69
16355;BME280;8287;51.644;8.494;2022-10-16T03:47:09;99988.81;;;17.45;76.48
16355;BME280;8287;51.644;8.494;2022-10-16T03:49:36;99995.00;;;17.49;76.33
16355;BME280;8287;51.644;8.494;2022-10-16T03:52:02;99990.34;;;17.46;76.60
16355;BME280;8287;51.644;8.494;2022-10-16T03:54:29;99989.28;;;17.50;76.13
16355;BME280;8287;51.644;8.494;2022-10-16T03:56:56;99985.78;;;17.46;76.48
16355;BME280;8287;51.644;8.494;2022-10-16T03:59:23;99985.38;;;17.44;76.37
16355;BME280;8287;51.644;8.494;2022-10-16T04:01:50;99977.00;;;17.49;76.24
16355;BME280;8287;51.644;8.494;2022-10-16T04:04:17;99965.94;;;17.51;75.51
16355;BME280;8287;51.644;8.494;2022-10-16T04:06:43;99959.41;;;17.48;75.62
16355;BME280;8287;51.644;8.494;2022-10-16T04:09:10;99968.22;;;17.49;75.52
16355;BME280;8287;51.644;8.494;2022-10-16T04:11:36;99972.84;;;17.52;75.28
16355;BME280;8287;51.644;8.494;2022-10-16T04:14:04;99966.31;;;17.49;75.72
16355;BME280;8287;51.644;8.494;2022-10-16T04:16:32;99985.91;;;17.53;75.61
16355;BME280;8287;51.644;8.494;2022-10-16T04:18:58;99970.59;;;17.54;75.38
16355;BME280;8287;51.644;8.494;2022-10-16T04:21:25;99964.88;;;17.55;75.70
16355;BME280;8287;51.644;8.494;2022-10-16T04:23:52;99978.94;;;17.49;75.48
16355;BME280;8287;51.644;8.494;2022-10-16T04:26:18;99982.78;;;17.51;75.83
16355;BME280;8287;51.644;8.494;2022-10-16T04:28:45;99992.47;;;17.59;75.59
16355;BME280;8287;51.644;8.494;2022-10-16T04:31:11;100002.44;;;17.59;75.29
16355;BME280;8287;51.644;8.494;2022-10-16T04:33:42;100009.00;;;17.61;75.45
16355;BME280;8287;51.644;8.494;2022-10-16T04:36:08;100009.81;;;17.65;75.31
16355;BME280;8287;51.644;8.494;2022-10-16T04:38:35;99982.25;;;17.65;75.74
16355;BME280;8287;51.644;8.494;2022-10-16T04:41:02;99993.69;;;17.62;75.49
16355;BME280;8287;51.644;8.494;2022-10-16T04:43:29;99992.19;;;17.64;75.42
16355;BME280;8287;51.644;8.494;2022-10-16T04:45:56;100003.25;;;17.63;75.46
16355;BME280;8287;51.644;8.494;2022-10-16T04:48:22;100012.84;;;17.64;75.47
16355;BME280;8287;51.644;8.494;2022-10-16T04:50:50;100018.22;;;17.64;75.58
16355;BME280;8287;51.644;8.494;2022-10-16T04:53:17;100026.22;;;17.60;75.52
16355;BME280;8287;51.644;8.494;2022-10-16T04:55:43;100030.38;;;17.58;75.70
16355;BME280;8287;51.644;8.494;2022-10-16T04:58:10;100031.97;;;17.62;75.31
16355;BME280;8287;51.644;8.494;2022-10-16T05:00:36;100025.13;;;17.65;75.35
16355;BME280;8287;51.644;8.494;2022-10-16T05:03:04;100027.75;;;17.61;75.68
16355;BME280;8287;51.644;8.494;2022-10-16T05:05:32;100031.50;;;17.57;75.63
16355;BME280;8287;51.644;8.494;2022-10-16T05:08:00;100035.84;;;17.65;75.27
16355;BME280;8287;51.644;8.494;2022-10-16T05:10:27;100032.25;;;17.57;75.42
16355;BME280;8287;51.644;8.494;2022-10-16T05:12:54;100026.16;;;17.57;75.59
16355;BME280;8287;51.644;8.494;2022-10-16T05:15:20;100040.69;;;17.56;75.45
16355;BME280;8287;51.644;8.494;2022-10-16T05:17:52;100045.31;;;17.59;74.67
16355;BME280;8287;51.644;8.494;2022-10-16T05:20:18;100043.63;;;17.51;75.03
16355;BME280;8287;51.644;8.494;2022-10-16T05:22:45;100042.50;;;17.52;75.11
16355;BME280;8287;51.644;8.494;2022-10-16T05:25:13;100050.19;;;17.53;75.04
16355;BME280;8287;51.644;8.494;2022-10-16T05:27:40;100035.19;;;17.49;74.98
16355;BME280;8287;51.644;8.494;2022-10-16T05:30:07;100044.06;;;17.53;74.72
16355;BME280;8287;51.644;8.494;2022-10-16T05:32:34;100037.22;;;17.55;74.94
16355;BME280;8287;51.644;8.494;2022-10-16T05:35:00;100041.09;;;17.58;74.81
16355;BME280;8287;51.644;8.494;2022-10-16T05:37:27;100059.13;;;17.61;74.55
16355;BME280;8287;51.644;8.494;2022-10-16T05:39:54;100048.28;;;17.54;74.99
16355;BME280;8287;51.644;8.494;2022-10-16T05:42:21;100050.66;;;17.59;74.75
16355;BME280;8287;51.644;8.494;2022-10-16T05:44:48;100064.78;;;17.56;74.77
16355;BME280;8287;51.644;8.494;2022-10-16T05:47:14;100063.59;;;17.53;74.37
16355;BME280;8287;51.644;8.494;2022-10-16T05:49:41;100071.19;;;17.51;74.64
16355;BME280;8287;51.644;8.494;2022-10-16T05:52:08;100071.50;;;17.46;75.01
16355;BME280;8287;51.644;8.494;2022-10-16T05:54:34;100073.03;;;17.47;74.69
16355;BME280;8287;51.644;8.494;2022-10-16T05:57:01;100081.44;;;17.46;75.00
16355;BME280;8287;51.644;8.494;2022-10-16T05:59:29;100082.97;;;17.47;74.89
16355;BME280;8287;51.644;8.494;2022-10-16T06:01:55;100093.69;;;17.47;74.30
16355;BME280;8287;51.644;8.494;2022-10-16T06:04:22;100100.97;;;17.46;74.76
16355;BME280;8287;51.644;8.494;2022-10-16T06:06:48;100097.50;;;17.46;74.95
16355;BME280;8287;51.644;8.494;2022-10-16T06:09:15;100092.13;;;17.46;74.93
16355;BME280;8287;51.644;8.494;2022-10-16T06:11:42;100102.78;;;17.42;75.30
16355;BME280;8287;51.644;8.494;2022-10-16T06:14:08;100105.25;;;17.51;74.78
16355;BME280;8287;51.644;8.494;2022-10-16T06:16:37;100118.38;;;17.56;74.77
16355;BME280;8287;51.644;8.494;2022-10-16T06:19:05;100111.56;;;17.62;74.68
16355;BME280;8287;51.644;8.494;2022-10-16T06:21:33;100109.31;;;17.64;74.79
16355;BME280;8287;51.644;8.494;2022-10-16T06:24:00;100101.72;;;17.66;74.54
16355;BME280;8287;51.644;8.494;2022-10-16T06:26:28;100109.44;;;17.71;74.39
16355;BME280;8287;51.644;8.494;2022-10-16T06:28:56;100127.50;;;17.74;74.22
16355;BME280;8287;51.644;8.494;2022-10-16T06:31:23;100128.13;;;17.67;74.38
16355;BME280;8287;51.644;8.494;2022-10-16T06:33:54;100125.97;;;17.73;74.49
16355;BME280;8287;51.644;8.494;2022-10-16T06:36:22;100123.31;;;17.76;74.42
16355;BME280;8287;51.644;8.494;2022-10-16T06:38:49;100126.06;;;17.80;74.16
16355;BME280;8287;51.644;8.494;2022-10-16T06:41:17;100134.81;;;17.77;74.65
16355;BME280;8287;51.644;8.494;2022-10-16T06:43:44;100126.91;;;17.84;74.38
16355;BME280;8287;51.644;8.494;2022-10-16T06:46:13;100129.13;;;17.78;74.38
16355;BME280;8287;51.644;8.494;2022-10-16T06:48:40;100138.06;;;17.86;74.09
16355;BME280;8287;51.644;8.494;2022-10-16T06:51:11;100152.72;;;17.92;73.99
16355;BME280;8287;51.644;8.494;2022-10-16T06:53:39;100158.91;;;17.96;73.75
16355;BME280;8287;51.644;8.494;2022-10-16T06:56:07;100154.34;;;17.96;73.71
16355;BME280;8287;51.644;8.494;2022-10-16T06:58:34;100162.50;;;18.03;73.51
16355;BME280;8287;51.644;8.494;2022-10-16T07:01:00;100167.13;;;18.06;73.84
16355;BME280;8287;51.644;8.494;2022-10-16T07:03:27;100171.91;;;17.94;73.73
16355;BME280;8287;51.644;8.494;2022-10-16T07:05:54;100172.56;;;18.10;73.70
16355;BME280;8287;51.644;8.494;2022-10-16T07:08:21;100175.25;;;18.10;74.13
16355;BME280;8287;51.644;8.494;2022-10-16T07:10:48;100183.00;;;18.15;73.50
16355;BME280;8287;51.644;8.494;2022-10-16T07:13:15;100189.25;;;18.22;73.69
16355;BME280;8287;51.644;8.494;2022-10-16T07:15:41;100191.41;;;18.13;73.82
16355;BME280;8287;51.644;8.494;2022-10-16T07:18:08;100192.94;;;18.14;73.85
16355;BME280;8287;51.644;8.494;2022-10-16T07:20:35;100204.56;;;18.22;73.92
16355;BME280;8287;51.644;8.494;2022-10-16T07:23:02;100196.97;;;18.24;73.70
16355;BME280;8287;51.644;8.494;2022-10-16T07:25:30;100205.28;;;18.19;74.30
16355;BME280;8287;51.644;8.494;2022-10-16T07:27:57;100199.41;;;18.32;73.86
16355;BME280;8287;51.644;8.494;2022-10-16T07:30:23;100196.56;;;18.44;73.49
16355;BME280;8287;51.644;8.494;2022-10-16T07:32:50;100207.25;;;18.41;73.87
16355;BME280;8287;51.644;8.494;2022-10-16T07:35:16;100221.13;;;18.46;73.24
16355;BME280;8287;51.644;8.494;2022-10-16T07:37:44;100223.75;;;18.43;73.44
16355;BME280;8287;51.644;8.494;2022-10-16T07:40:11;100232.63;;;18.47;73.53
16355;BME280;8287;51.644;8.494;2022-10-16T07:42:39;100230.38;;;18.49;73.54
16355;BME280;8287;51.644;8.494;2022-10-16T07:45:06;100240.97;;;18.42;73.90
16355;BME280;8287;51.644;8.494;2022-10-16T07:47:33;100248.66;;;18.43;74.19
16355;BME280;8287;51.644;8.494;2022-10-16T07:50:00;100251.53;;;18.54;74.79
16355;BME280;8287;51.644;8.494;2022-10-16T07:52:26;100260.97;;;18.67;74.21
16355;BME280;8287;51.644;8.494;2022-10-16T07:54:53;100262.00;;;18.85;73.33
16355;BME280;8287;51.644;8.494;2022-10-16T07:57:19;100263.97;;;18.88;72.56
16355;BME280;8287;51.644;8.494;2022-10-16T07:59:47;100254.94;;;18.99;73.18
16355;BME280;8287;51.644;8.494;2022-10-16T08:02:14;100260.81;;;19.08;73.02
16355;BME280;8287;51.644;8.494;2022-10-16T08:04:40;100267.31;;;19.30;71.98
16355;BME280;8287;51.644;8.494;2022-10-16T08:07:07;100255.28;;;19.20;71.92
16355;BME280;8287;51.644;8.494;2022-10-16T08:09:34;100246.69;;;19.37;71.60
16355;BME280;8287;51.644;8.494;2022-10-16T08:12:01;100250.97;;;19.42;71.02
16355;BME280;8287;51.644;8.494;2022-10-16T08:14:29;100253.75;;;19.49;70.80
16355;BME280;8287;51.644;8.494;2022-10-16T08:16:57;100254.06;;;19.44;70.39
16355;BME280;8287;51.644;8.494;2022-10-16T08:19:23;100250.63;;;19.47;71.17
16355;BME280;8287;51.644;8.494;2022-10-16T08:21:50;100266.38;;;19.45;70.50
16355;BME280;8287;51.644;8.494;2022-10-16T08:24:17;100266.50;;;19.55;70.31
16355;BME280;8287;51.644;8.494;2022-10-16T08:26:43;100267.00;;;19.64;70.25
16355;BME280;8287;51.644;8.494;2022-10-16T08:29:10;100270.41;;;19.61;69.42
16355;BME280;8287;51.644;8.494;2022-10-16T08:31:36;100272.84;;;19.70;69.47
16355;BME280;8287;51.644;8.494;2022-10-16T08:34:04;100277.47;;;19.73;69.25
16355;BME280;8287;51.644;8.494;2022-10-16T08:36:31;100280.03;;;19.62;69.75
16355;BME280;8287;51.644;8.494;2022-10-16T08:38:57;100293.53;;;19.66;69.02
16355;BME280;8287;51.644;8.494;2022-10-16T08:41:57;100305.41;;;19.65;68.74
16355;BME280;8287;51.644;8.494;2022-10-16T08:44:54;100292.69;;;19.62;68.47
16355;BME280;8287;51.644;8.494;2022-10-16T08:47:28;100299.81;;;19.77;68.43
16355;BME280;8287;51.644;8.494;2022-10-16T08:50:02;100311.16;;;19.63;68.84
16355;BME280;8287;51.644;8.494;2022-10-16T08:52:39;100305.91;;;19.74;68.44
16355;BME280;8287;51.644;8.494;2022-10-16T08:55:08;100308.19;;;19.72;68.39
16355;BME280;8287;51.644;8.494;2022-10-16T08:57:43;100311.75;;;19.79;66.90
16355;BME280;8287;51.644;8.494;2022-10-16T09:00:13;100311.81;;;19.83;67.49
16355;BME280;8287;51.644;8.494;2022-10-16T09:02:46;100317.63;;;19.88;66.76
16355;BME280;8287;51.644;8.494;2022-10-16T09:05:46;100315.69;;;19.89;66.87
16355;BME280;8287;51.644;8.494;2022-10-16T09:08:22;100330.03;;;19.96;66.94
16355;BME280;8287;51.644;8.494;2022-10-16T09:10:56;100331.69;;;20.04;66.22
16355;BME280;8287;51.644;8.494;2022-10-16T09:13:29;100336.22;;;20.00;65.85
16355;BME280;8287;51.644;8.494;2022-10-16T09:16:03;100343.63;;;20.07;65.35
16355;BME280;8287;51.644;8.494;2022-10-16T09:18:40;100351.38;;;20.12;64.77
16355;BME280;8287;51.644;8.494;2022-10-16T09:21:14;100357.13;;;20.10;64.82
16355;BME280;8287;51.644;8.494;2022-10-16T09:23:43;100350.31;;;20.20;65.17
16355;BME280;8287;51.644;8.494;2022-10-16T09:26:12;100359.66;;;20.29;64.48
16355;BME280;8287;51.644;8.494;2022-10-16T09:28:39;100360.88;;;20.35;63.57
16355;BME280;8287;51.644;8.494;2022-10-16T09:31:13;100358.66;;;20.44;63.46
16355;BME280;8287;51.644;8.494;2022-10-16T09:33:42;100361.44;;;20.51;62.36
16355;BME280;8287;51.644;8.494;2022-10-16T09:36:11;100369.47;;;20.47;62.65
16355;BME280;8287;51.644;8.494;2022-10-16T09:38:39;100365.47;;;20.67;62.48
16355;BME280;8287;51.644;8.494;2022-10-16T09:41:15;100359.28;;;20.67;61.84
16355;BME280;8287;51.644;8.494;2022-10-16T09:43:47;100354.03;;;20.81;62.58
16355;BME280;8287;51.644;8.494;2022-10-16T09:46:24;100371.72;;;20.78;59.37
16355;BME280;8287;51.644;8.494;2022-10-16T09:48:54;100377.44;;;20.73;58.70
16355;BME280;8287;51.644;8.494;2022-10-16T09:51:24;100371.63;;;20.71;58.17
16355;BME280;8287;51.644;8.494;2022-10-16T09:53:55;100375.13;;;20.72;58.12
16355;BME280;8287;51.644;8.494;2022-10-16T09:56:23;100376.22;;;20.67;56.80
16355;BME280;8287;51.644;8.494;2022-10-16T09:58:50;100366.09;;;20.54;56.25
16355;BME280;8287;51.644;8.494;2022-10-16T10:01:18;100383.75;;;20.51;56.72
16355;BME280;8287;51.644;8.494;2022-10-16T10:03:46;100385.38;;;20.59;57.27
16355;BME280;8287;51.644;8.494;2022-10-16T10:06:24;100388.75;;;20.53;55.80
16355;BME280;8287;51.644;8.494;2022-10-16T10:08:54;100387.25;;;20.55;55.23
16355;BME280;8287;51.644;8.494;2022-10-16T10:11:36;100396.91;;;20.60;55.41
16355;BME280;8287;51.644;8.494;2022-10-16T10:14:22;100406.44;;;20.50;56.10
16355;BME280;8287;51.644;8.494;2022-10-16T10:16:50;100402.28;;;20.60;55.73
16355;BME280;8287;51.644;8.494;2022-10-16T10:19:18;100390.44;;;20.68;56.14
16355;BME280;8287;51.644;8.494;2022-10-16T10:21:47;100394.69;;;20.69;55.84
16355;BME280;8287;51.644;8.494;2022-10-16T10:24:15;100396.28;;;20.73;55.61
16355;BME280;8287;51.644;8.494;2022-10-16T10:26:48;100400.97;;;20.80;55.37
16355;BME280;8287;51.644;8.494;2022-10-16T10:29:25;100402.63;;;20.88;55.73
16355;BME280;8287;51.644;8.494;2022-10-16T10:32:02;100394.97;;;20.93;55.26
16355;BME280;8287;51.644;8.494;2022-10-16T10:34:42;100397.75;;;21.00;56.34
16355;BME280;8287;51.644;8.494;2022-10-16T10:37:28;100393.47;;;20.99;55.80
16355;BME280;8287;51.644;8.494;2022-10-16T10:40:04;100404.78;;;21.15;55.93
16355;BME280;8287;51.644;8.494;2022-10-16T10:42:34;100402.06;;;21.12;55.18
16355;BME280;8287;51.644;8.494;2022-10-16T10:45:16;100397.16;;;21.21;55.54
16355;BME280;8287;51.644;8.494;2022-10-16T10:47:51;100408.28;;;21.19;54.57
16355;BME280;8287;51.644;8.494;2022-10-16T10:50:25;100410.72;;;21.35;54.38
16355;BME280;8287;51.644;8.494;2022-10-16T10:52:59;100413.13;;;21.43;53.95
16355;BME280;8287;51.644;8.494;2022-10-16T10:55:37;100406.19;;;21.42;53.76
16355;BME280;8287;51.644;8.494;2022-10-16T10:58:49;100409.31;;;21.51;54.19
16355;BME280;8287;51.644;8.494;2022-10-16T11:01:26;100413.19;;;21.57;53.83
16355;BME280;8287;51.644;8.494;2022-10-16T11:04:29;100413.81;;;21.33;53.27
16355;BME280;8287;51.644;8.494;2022-10-16T11:07:02;100410.31;;;21.29;52.64
16355;BME280;8287;51.644;8.494;2022-10-16T11:09:34;100417.63;;;21.29;53.75
16355;BME280;8287;51.644;8.494;2022-10-16T11:12:06;100413.78;;;21.30;53.29
16355;BME280;8287;51.644;8.494;2022-10-16T11:14:38;100412.75;;;21.48;53.41
16355;BME280;8287;51.644;8.494;2022-10-16T11:17:11;100407.78;;;21.50;52.58
16355;BME280;8287;51.644;8.494;2022-10-16T11:19:42;100407.16;;;21.67;52.60
16355;BME280;8287;51.644;8.494;2022-10-16T11:22:15;100400.25;;;21.73;52.09
16355;BME280;8287;51.644;8.494;2022-10-16T11:24:48;100411.72;;;21.63;52.26
16355;BME280;8287;51.644;8.494;2022-10-16T11:27:21;100404.00;;;21.58;52.14
16355;BME280;8287;51.644;8.494;2022-10-16T11:29:53;100409.38;;;21.58;52.33
16355;BME280;8287;51.644;8.494;2022-10-16T11:32:25;100405.59;;;21.70;52.88
16355;BME280;8287;51.644;8.494;2022-10-16T11:34:59;100411.84;;;21.77;52.68
16355;BME280;8287;51.644;8.494;2022-10-16T11:37:31;100411.91;;;21.91;52.26
16355;BME280;8287;51.644;8.494;2022-10-16T11:40:15;100419.66;;;21.96;52.57
16355;BME280;8287;51.644;8.494;2022-10-16T11:42:48;100415.38;;;21.88;52.49
16355;BME280;8287;51.644;8.494;2022-10-16T11:45:26;100417.75;;;22.00;51.92
16355;BME280;8287;51.644;8.494;2022-10-16T11:48:00;100413.56;;;22.13;52.07
16355;BME280;8287;51.644;8.494;2022-10-16T11:50:34;100419.03;;;22.24;51.49
16355;BME280;8287;51.644;8.494;2022-10-16T11:53:04;100418.25;;;22.23;51.40
16355;BME280;8287;51.644;8.494;2022-10-16T11:55:37;100411.84;;;22.52;52.13
16355;BME280;8287;51.644;8.494;2022-10-16T11:58:07;100416.81;;;22.50;50.79
16355;BME280;8287;51.644;8.494;2022-10-16T12:00:42;100411.44;;;22.57;50.70
16355;BME280;8287;51.644;8.494;2022-10-16T12:03:17;100414.59;;;22.80;51.59
16355;BME280;8287;51.644;8.494;2022-10-16T12:06:00;100413.09;;;22.93;50.60
16355;BME280;8287;51.644;8.494;2022-10-16T12:08:33;100419.63;;;22.92;49.82
16355;BME280;8287;51.644;8.494;2022-10-16T12:11:08;100421.19;;;23.00;49.80
16355;BME280;8287;51.644;8.494;2022-10-16T12:13:37;100425.03;;;22.82;49.17
16355;BME280;8287;51.644;8.494;2022-10-16T12:16:19;100427.72;;;22.82;49.25
16355;BME280;8287;51.644;8.494;2022-10-16T12:18:47;100409.56;;;22.82;48.89
16355;BME280;8287;51.644;8.494;2022-10-16T12:21:16;100418.47;;;22.86;49.19
16355;BME280;8287;51.644;8.494;2022-10-16T12:23:47;100410.78;;;22.95;48.90
16355;BME280;8287;51.644;8.494;2022-10-16T12:26:24;100421.59;;;23.06;48.19
16355;BME280;8287;51.644;8.494;2022-10-16T12:28:51;100408.50;;;23.18;48.68
16355;BME280;8287;51.644;8.494;2022-10-16T12:31:18;100416.63;;;23.22;48.38
16355;BME280;8287;51.644;8.494;2022-10-16T12:33:56;100420.09;;;23.33;49.27
16355;BME280;8287;51.644;8.494;2022-10-16T12:36:28;100426.25;;;23.40;48.36
16355;BME280;8287;51.644;8.494;2022-10-16T12:38:55;100426.25;;;23.54;47.89
16355;BME280;8287;51.644;8.494;2022-10-16T12:41:28;100427.81;;;23.34;48.83
16355;BME280;8287;51.644;8.494;2022-10-16T12:43:55;100433.97;;;23.73;46.88
16355;BME280;8287;51.644;8.494;2022-10-16T12:46:36;100430.47;;;23.83;46.78
16355;BME280;8287;51.644;8.494;2022-10-16T12:49:21;100432.44;;;23.93;46.20
16355;BME280;8287;51.644;8.494;2022-10-16T12:51:50;100427.75;;;24.08;46.84
16355;BME280;8287;51.644;8.494;2022-10-16T12:54:18;100439.75;;;23.93;46.37
16355;BME280;8287;51.644;8.494;2022-10-16T12:56:54;100432.34;;;24.14;46.03
16355;BME280;8287;51.644;8.494;2022-10-16T12:59:32;100430.81;;;24.13;45.68
16355;BME280;8287;51.644;8.494;2022-10-16T13:02:16;100448.56;;;24.24;46.07
16355;BME280;8287;51.644;8.494;2022-10-16T13:05:02;100451.63;;;24.37;44.43
16355;BME280;8287;51.644;8.494;2022-10-16T13:07:46;100446.22;;;24.30;45.46
16355;BME280;8287;51.644;8.494;2022-10-16T13:10:22;100456.38;;;23.98;44.94
16355;BME280;8287;51.644;8.494;2022-10-16T13:13:18;100459.50;;;23.86;45.34
16355;BME280;8287;51.644;8.494;2022-10-16T13:16:00;100462.22;;;23.86;45.79
16355;BME280;8287;51.644;8.494;2022-10-16T13:18:35;100465.66;;;23.83;46.06
16355;BME280;8287;51.644;8.494;2022-10-16T13:21:14;100469.50;;;23.82;45.92